createdAt,value
2019-05-11T00:01:12.951Z,11.10
2019-05-11T00:03:39.483Z,11.10
2019-05-11T00:06:09.047Z,11.10
2019-05-11T00:08:35.648Z,11.10
2019-05-11T00:11:02.395Z,11.10
2019-05-11T00:13:28.927Z,11.10
2019-05-11T00:15:55.713Z,11.10
2019-05-11T00:18:22.224Z,11.10
2019-05-11T00:20:48.866Z,11.10
2019-05-11T00:23:15.536Z,11.10
2019-05-11T00:25:42.184Z,11.10
2019-05-11T00:28:08.771Z,11.10
2019-05-11T00:30:56.972Z,11.00
2019-05-11T00:33:24.131Z,11.00
2019-05-11T00:35:51.530Z,10.90
2019-05-11T00:38:18.242Z,10.90
2019-05-11T00:40:45.055Z,10.70
2019-05-11T00:43:12.133Z,10.60
2019-05-11T00:45:38.951Z,10.60
2019-05-11T00:48:08.751Z,10.50
2019-05-11T00:50:39.420Z,10.40
2019-05-11T00:53:04.645Z,10.40
2019-05-11T00:55:31.680Z,10.40
2019-05-11T00:58:01.889Z,10.30
2019-05-11T01:00:28.717Z,10.30
2019-05-11T01:02:55.603Z,10.30
2019-05-11T01:05:22.288Z,10.20
2019-05-11T01:07:49.050Z,10.30
2019-05-11T01:10:23.777Z,10.30
2019-05-11T01:12:44.162Z,10.30
2019-05-11T01:15:10.922Z,10.30
2019-05-11T01:17:37.430Z,10.30
2019-05-11T01:20:07.388Z,10.30
2019-05-11T01:22:34.003Z,10.30
2019-05-11T01:25:00.647Z,10.30
2019-05-11T01:27:27.327Z,10.30
2019-05-11T01:29:53.770Z,10.30
2019-05-11T01:32:20.664Z,10.30
2019-05-11T01:34:47.444Z,10.30
2019-05-11T01:37:14.207Z,10.30
2019-05-11T01:39:45.368Z,10.20
2019-05-11T01:42:13.366Z,10.20
2019-05-11T01:44:40.391Z,10.20
2019-05-11T01:47:07.354Z,10.00
2019-05-11T01:49:38.270Z,9.90
2019-05-11T01:52:16.753Z,9.70
2019-05-11T01:54:43.907Z,9.50
2019-05-11T01:57:13.344Z,9.50
2019-05-11T01:59:40.147Z,9.50
2019-05-11T02:02:10.208Z,9.40
2019-05-11T02:04:37.153Z,9.40
2019-05-11T02:07:06.805Z,9.40
2019-05-11T02:09:36.975Z,9.30
2019-05-11T02:12:03.644Z,9.30
2019-05-11T02:14:30.882Z,9.40
2019-05-11T02:17:01.090Z,9.40
2019-05-11T02:19:28.140Z,9.40
2019-05-11T02:21:55.490Z,9.50
2019-05-11T02:24:22.636Z,9.50
2019-05-11T02:26:49.716Z,9.60
2019-05-11T02:29:18.406Z,9.70
2019-05-11T02:31:45.215Z,9.80
2019-05-11T02:34:12.440Z,9.90
2019-05-11T02:36:39.945Z,9.90
2019-05-11T02:39:07.458Z,10.00
2019-05-11T02:41:37.212Z,10.00
2019-05-11T02:44:04.476Z,10.10
2019-05-11T02:46:31.333Z,10.10
2019-05-11T02:48:58.040Z,10.20
2019-05-11T02:51:26.122Z,10.30
2019-05-11T02:53:53.900Z,10.30
2019-05-11T02:56:21.212Z,10.30
2019-05-11T02:58:47.925Z,10.40
2019-05-11T03:01:14.999Z,10.40
2019-05-11T03:03:41.801Z,10.50
2019-05-11T03:06:08.513Z,10.50
2019-05-11T03:08:35.184Z,10.50
2019-05-11T03:11:02.053Z,10.50
2019-05-11T03:13:28.662Z,10.50
2019-05-11T03:15:55.456Z,10.40
2019-05-11T03:18:22.461Z,10.30
2019-05-11T03:20:49.380Z,10.30
2019-05-11T03:23:16.061Z,10.40
2019-05-11T03:25:42.950Z,10.30
2019-05-11T03:28:09.620Z,10.30
2019-05-11T03:30:36.276Z,10.40
2019-05-11T03:33:03.379Z,10.40
2019-05-11T03:35:30.445Z,10.40
2019-05-11T03:37:57.126Z,10.40
2019-05-11T03:40:24.213Z,10.40
2019-05-11T03:42:51.047Z,10.40
2019-05-11T03:45:17.851Z,10.40
2019-05-11T03:47:44.577Z,10.40
2019-05-11T03:50:11.412Z,10.30
2019-05-11T03:52:38.144Z,10.30
2019-05-11T03:55:05.512Z,10.30
2019-05-11T03:57:32.303Z,10.30
2019-05-11T03:59:59.279Z,10.30
2019-05-11T04:02:26.049Z,10.30
2019-05-11T04:04:53.032Z,10.30
2019-05-11T04:07:20.020Z,10.40
2019-05-11T04:09:46.923Z,10.30
2019-05-11T04:12:32.940Z,10.20
2019-05-11T04:14:42.066Z,10.30
2019-05-11T04:17:08.815Z,10.20
2019-05-11T04:19:35.648Z,10.30
2019-05-11T04:22:02.454Z,10.30
2019-05-11T04:24:32.151Z,10.30
2019-05-11T04:26:58.934Z,10.30
2019-05-11T04:29:28.505Z,10.30
2019-05-11T04:31:55.216Z,10.30
2019-05-11T04:34:21.816Z,10.40
2019-05-11T04:36:49.115Z,10.40
2019-05-11T04:39:16.222Z,10.40
2019-05-11T04:41:43.138Z,10.40
2019-05-11T04:44:09.845Z,10.50
2019-05-11T04:46:36.521Z,10.50
2019-05-11T04:49:03.687Z,10.50
2019-05-11T04:51:30.746Z,10.60
2019-05-11T04:53:57.185Z,10.70
2019-05-11T04:56:24.143Z,10.80
2019-05-11T04:58:50.805Z,10.70
2019-05-11T05:01:17.498Z,10.80
2019-05-11T05:03:47.541Z,10.80
2019-05-11T05:06:22.041Z,10.90
2019-05-11T05:08:41.161Z,10.90
2019-05-11T05:11:08.945Z,10.90
2019-05-11T05:13:35.634Z,11.00
2019-05-11T05:16:02.562Z,11.00
2019-05-11T05:18:32.237Z,11.10
2019-05-11T05:20:59.597Z,11.10
2019-05-11T05:23:26.437Z,11.10
2019-05-11T05:25:53.862Z,11.10
2019-05-11T05:28:20.613Z,11.10
2019-05-11T05:30:50.354Z,11.20
2019-05-11T05:33:17.644Z,11.20
2019-05-11T05:35:44.751Z,11.20
2019-05-11T05:38:11.534Z,11.20
2019-05-11T05:40:38.713Z,11.20
2019-05-11T05:43:05.365Z,11.20
2019-05-11T05:45:31.961Z,11.30
2019-05-11T05:47:58.604Z,11.40
2019-05-11T05:50:30.084Z,11.40
2019-05-11T05:52:57.105Z,11.40
2019-05-11T05:55:23.788Z,11.40
2019-05-11T05:57:50.635Z,11.50
2019-05-11T06:00:17.725Z,11.50
2019-05-11T06:02:44.456Z,11.50
2019-05-11T06:05:11.246Z,11.50
2019-05-11T06:07:37.838Z,11.50
2019-05-11T06:10:06.568Z,11.50
2019-05-11T06:12:33.222Z,11.50
2019-05-11T06:14:59.946Z,11.50
2019-05-11T06:17:26.848Z,11.50
2019-05-11T06:19:55.509Z,11.50
2019-05-11T06:22:22.189Z,11.40
2019-05-11T06:24:50.087Z,11.40
2019-05-11T06:27:16.719Z,11.50
2019-05-11T06:29:43.512Z,11.50
2019-05-11T06:32:10.203Z,11.50
2019-05-11T06:34:36.670Z,11.50
2019-05-11T06:37:03.256Z,11.60
2019-05-11T06:39:30.040Z,11.60
2019-05-11T06:41:56.782Z,11.60
2019-05-11T06:44:23.904Z,11.60
2019-05-11T06:46:50.671Z,11.70
2019-05-11T06:49:17.511Z,11.90
2019-05-11T06:51:44.296Z,11.90
2019-05-11T06:54:10.919Z,11.90
2019-05-11T06:56:37.723Z,11.90
2019-05-11T06:59:04.542Z,11.80
2019-05-11T07:01:37.287Z,11.70
2019-05-11T07:04:03.981Z,11.80
2019-05-11T07:06:30.922Z,11.80
2019-05-11T07:08:58.226Z,12.00
2019-05-11T07:11:24.929Z,12.10
2019-05-11T07:13:53.958Z,11.90
2019-05-11T07:16:20.768Z,12.00
2019-05-11T07:18:47.540Z,12.00
2019-05-11T07:21:14.208Z,11.90
2019-05-11T07:23:41.534Z,11.80
2019-05-11T07:26:08.066Z,11.80
2019-05-11T07:28:34.940Z,11.80
2019-05-11T07:31:04.630Z,11.80
2019-05-11T07:33:31.249Z,11.70
2019-05-11T07:35:58.383Z,11.70
2019-05-11T07:38:27.770Z,11.70
2019-05-11T07:40:54.339Z,11.70
2019-05-11T07:43:21.019Z,11.70
2019-05-11T07:45:48.097Z,11.90
2019-05-11T07:48:15.060Z,12.00
2019-05-11T07:50:42.604Z,12.10
2019-05-11T07:53:09.257Z,12.10
2019-05-11T07:55:38.656Z,12.30
2019-05-11T07:58:08.006Z,12.30
2019-05-11T08:00:37.427Z,12.30
2019-05-11T08:03:03.830Z,12.40
2019-05-11T08:05:30.610Z,12.40
2019-05-11T08:08:01.938Z,12.40
2019-05-11T08:10:28.796Z,12.30
2019-05-11T08:12:55.755Z,12.50
2019-05-11T08:15:22.911Z,12.40
2019-05-11T08:17:49.550Z,12.50
2019-05-11T08:20:18.498Z,12.60
2019-05-11T08:22:48.335Z,12.80
2019-05-11T08:25:18.052Z,12.70
2019-05-11T08:27:44.226Z,12.70
2019-05-11T08:30:12.189Z,12.70
2019-05-11T08:32:41.592Z,12.80
2019-05-11T08:35:09.241Z,12.90
2019-05-11T08:37:35.788Z,13.00
2019-05-11T08:40:07.904Z,13.00
2019-05-11T08:42:34.448Z,12.90
2019-05-11T08:45:15.824Z,13.00
2019-05-11T08:47:29.676Z,12.80
2019-05-11T08:49:58.759Z,12.80
2019-05-11T08:52:25.302Z,12.70
2019-05-11T08:54:51.942Z,12.70
2019-05-11T08:57:21.089Z,12.80
2019-05-11T08:59:48.384Z,12.80
2019-05-11T09:02:15.799Z,12.70
2019-05-11T09:04:42.560Z,12.70
2019-05-11T09:07:09.194Z,12.70
2019-05-11T09:09:38.016Z,12.70
2019-05-11T09:12:04.665Z,12.70
2019-05-11T09:14:31.299Z,12.70
2019-05-11T09:16:58.209Z,12.70
2019-05-11T09:19:28.223Z,12.70
2019-05-11T09:21:54.619Z,12.70
2019-05-11T09:24:24.295Z,12.70
2019-05-11T09:26:50.998Z,12.80
2019-05-11T09:29:18.027Z,12.90
2019-05-11T09:31:45.145Z,13.20
2019-05-11T09:34:11.755Z,13.30
2019-05-11T09:36:39.138Z,13.40
2019-05-11T09:39:08.496Z,13.40
2019-05-11T09:41:38.115Z,13.50
2019-05-11T09:44:04.218Z,13.70
2019-05-11T09:46:30.788Z,14.10
2019-05-11T09:48:59.070Z,14.20
2019-05-11T09:51:25.912Z,14.10
2019-05-11T09:53:52.533Z,14.00
2019-05-11T09:56:19.266Z,14.00
2019-05-11T09:58:47.939Z,14.00
2019-05-11T10:01:14.344Z,13.90
2019-05-11T10:03:40.907Z,13.80
2019-05-11T10:06:08.367Z,13.80
2019-05-11T10:08:37.916Z,13.80
2019-05-11T10:11:04.041Z,14.10
2019-05-11T10:13:30.673Z,14.10
2019-05-11T10:16:06.230Z,13.90
2019-05-11T10:18:27.961Z,13.70
2019-05-11T10:20:54.705Z,13.80
2019-05-11T10:23:21.186Z,13.90
2019-05-11T10:25:48.128Z,14.10
2019-05-11T10:28:14.847Z,14.60
2019-05-11T10:30:42.282Z,14.90
2019-05-11T10:33:08.716Z,14.90
2019-05-11T10:35:37.794Z,14.80
2019-05-11T10:38:04.195Z,15.30
2019-05-11T10:40:30.815Z,15.40
2019-05-11T10:42:58.975Z,15.20
2019-05-11T10:45:25.773Z,15.00
2019-05-11T10:47:55.762Z,14.90
2019-05-11T10:50:20.735Z,15.00
2019-05-11T10:52:48.409Z,15.00
2019-05-11T10:55:15.357Z,14.80
2019-05-11T10:57:41.793Z,14.70
2019-05-11T11:00:09.577Z,15.00
2019-05-11T11:02:38.244Z,15.60
2019-05-11T11:05:08.116Z,15.90
2019-05-11T11:07:35.192Z,16.10
2019-05-11T11:10:01.804Z,16.60
2019-05-11T11:12:28.576Z,17.00
2019-05-11T11:14:55.169Z,17.10
2019-05-11T11:17:21.681Z,16.70
2019-05-11T11:19:48.772Z,16.30
2019-05-11T11:22:33.274Z,16.60
2019-05-11T11:24:43.934Z,17.00
2019-05-11T11:27:10.949Z,17.70
2019-05-11T11:29:38.786Z,17.90
2019-05-11T11:32:07.926Z,19.20
2019-05-11T11:34:34.035Z,20.60
2019-05-11T11:37:00.665Z,20.30
2019-05-11T11:39:28.270Z,19.80
2019-05-11T11:41:55.260Z,18.70
2019-05-11T11:44:22.196Z,17.40
2019-05-11T11:46:54.981Z,16.90
2019-05-11T11:49:18.741Z,16.80
2019-05-11T11:51:45.533Z,17.90
2019-05-11T11:54:12.055Z,17.90
2019-05-11T11:56:38.663Z,18.90
2019-05-11T11:59:05.283Z,19.50
2019-05-11T12:01:31.939Z,20.40
2019-05-11T12:03:58.518Z,20.20
2019-05-11T12:06:25.139Z,20.40
2019-05-11T12:08:51.554Z,20.40
2019-05-11T12:11:18.954Z,20.60
2019-05-11T12:13:47.582Z,19.90
2019-05-11T12:16:14.179Z,20.70
2019-05-11T12:18:40.750Z,20.90
2019-05-11T12:21:08.009Z,21.50
2019-05-11T12:23:34.930Z,20.60
2019-05-11T12:26:01.486Z,19.60
2019-05-11T12:28:28.052Z,18.80
2019-05-11T12:30:55.109Z,19.20
2019-05-11T12:33:21.772Z,19.70
2019-05-11T12:35:48.767Z,20.50
2019-05-11T12:38:15.299Z,20.80
2019-05-11T12:40:42.278Z,20.70
2019-05-11T12:43:08.915Z,20.50
2019-05-11T12:45:37.504Z,20.50
2019-05-11T12:48:03.900Z,20.30
2019-05-11T12:50:30.560Z,20.00
2019-05-11T12:52:58.770Z,19.90
2019-05-11T12:55:28.879Z,19.90
2019-05-11T12:57:57.818Z,20.20
2019-05-11T13:00:23.923Z,19.80
2019-05-11T13:02:50.392Z,20.30
2019-05-11T13:05:18.003Z,20.40
2019-05-11T13:07:45.054Z,20.90
2019-05-11T13:10:14.172Z,21.80
2019-05-11T13:12:40.779Z,21.50
2019-05-11T13:15:08.325Z,20.50
2019-05-11T13:17:38.396Z,20.70
2019-05-11T13:20:08.408Z,20.30
2019-05-11T13:22:34.853Z,19.20
2019-05-11T13:25:02.257Z,18.90
2019-05-11T13:27:28.699Z,19.60
2019-05-11T13:29:55.598Z,19.50
2019-05-11T13:32:22.277Z,19.90
2019-05-11T13:34:48.786Z,20.00
2019-05-11T13:37:15.428Z,20.50
2019-05-11T13:39:43.570Z,21.80
2019-05-11T13:42:10.428Z,21.80
2019-05-11T13:44:38.497Z,21.50
2019-05-11T13:47:05.995Z,21.60
2019-05-11T13:49:32.799Z,21.00
2019-05-11T13:51:59.509Z,20.50
2019-05-11T13:54:26.197Z,20.70
2019-05-11T13:56:52.666Z,20.60
2019-05-11T13:59:19.297Z,20.60
2019-05-11T14:01:47.739Z,20.30
2019-05-11T14:04:14.164Z,20.50
2019-05-11T14:06:40.732Z,21.00
2019-05-11T14:09:08.571Z,21.50
2019-05-11T14:11:35.093Z,21.10
2019-05-11T14:14:01.753Z,21.40
2019-05-11T14:16:28.266Z,22.00
2019-05-11T14:18:55.203Z,22.60
2019-05-11T14:21:22.264Z,23.60
2019-05-11T14:23:48.773Z,22.80
2019-05-11T14:26:15.386Z,22.00
2019-05-11T14:28:41.939Z,21.90
2019-05-11T14:31:08.584Z,21.50
2019-05-11T14:33:34.997Z,20.50
2019-05-11T14:36:01.699Z,20.40
2019-05-11T14:38:28.897Z,20.10
2019-05-11T14:40:55.541Z,20.10
2019-05-11T14:43:22.109Z,20.80
2019-05-11T14:45:48.753Z,20.50
2019-05-11T14:48:24.162Z,20.40
2019-05-11T14:50:44.800Z,20.50
2019-05-11T14:53:11.510Z,20.00
2019-05-11T14:55:38.334Z,19.10
2019-05-11T14:58:05.018Z,18.60
2019-05-11T15:00:31.536Z,18.90
2019-05-11T15:02:58.530Z,19.70
2019-05-11T15:05:25.230Z,20.10
2019-05-11T15:07:52.815Z,20.10
2019-05-11T15:10:21.135Z,20.10
2019-05-11T15:12:48.860Z,19.60
2019-05-11T15:15:18.642Z,19.10
2019-05-11T15:17:45.613Z,18.80
2019-05-11T15:20:17.538Z,18.50
2019-05-11T15:22:42.264Z,18.40
2019-05-11T15:25:14.774Z,18.20
2019-05-11T15:27:41.439Z,18.00
2019-05-11T15:30:09.584Z,17.80
2019-05-11T15:32:37.588Z,17.70
2019-05-11T15:35:08.036Z,17.80
2019-05-11T15:37:35.188Z,17.60
2019-05-11T15:40:15.346Z,17.50
2019-05-11T15:42:43.328Z,17.40
2019-05-11T15:45:11.750Z,17.50
2019-05-11T15:47:38.517Z,17.60
2019-05-11T15:50:08.961Z,17.50
2019-05-11T15:52:39.868Z,17.50
2019-05-11T15:55:07.931Z,17.40
2019-05-11T15:57:34.161Z,17.30
2019-05-11T16:00:00.790Z,17.10
2019-05-11T16:02:28.921Z,17.10
2019-05-11T16:04:58.203Z,17.10
2019-05-11T16:07:24.432Z,17.10
2019-05-11T16:09:50.849Z,17.10
2019-05-11T16:12:18.190Z,17.20
2019-05-11T16:14:44.685Z,17.10
2019-05-11T16:17:11.383Z,17.00
2019-05-11T16:19:40.924Z,17.00
2019-05-11T16:22:09.834Z,16.90
2019-05-11T16:24:39.770Z,17.00
2019-05-11T16:27:03.224Z,17.00
2019-05-11T16:29:29.714Z,17.00
2019-05-11T16:31:57.840Z,17.00
2019-05-11T16:34:24.769Z,17.00
2019-05-11T16:36:51.331Z,17.00
2019-05-11T16:39:18.683Z,16.80
2019-05-11T16:41:45.661Z,16.80
2019-05-11T16:44:12.415Z,16.70
2019-05-11T16:46:39.074Z,16.60
2019-05-11T16:49:05.858Z,16.50
2019-05-11T16:51:32.797Z,16.50
2019-05-11T16:53:59.565Z,16.30
2019-05-11T16:56:26.132Z,16.30
2019-05-11T16:58:54.710Z,16.30
2019-05-11T17:01:21.109Z,16.40
2019-05-11T17:03:48.282Z,16.20
2019-05-11T17:06:15.226Z,16.20
2019-05-11T17:08:41.853Z,16.10
2019-05-11T17:11:08.451Z,16.10
2019-05-11T17:13:34.941Z,16.10
2019-05-11T17:16:01.579Z,16.00
2019-05-11T17:18:28.732Z,16.10
2019-05-11T17:20:55.271Z,16.10
2019-05-11T17:23:21.846Z,16.10
2019-05-11T17:25:48.508Z,16.10
2019-05-11T17:28:15.199Z,16.20
2019-05-11T17:30:41.838Z,16.20
2019-05-11T17:33:08.835Z,16.20
2019-05-11T17:35:35.523Z,16.30
2019-05-11T17:38:02.202Z,16.20
2019-05-11T17:40:28.717Z,16.10
2019-05-11T17:42:55.240Z,16.10
2019-05-11T17:45:22.161Z,16.00
2019-05-11T17:47:48.789Z,15.90
2019-05-11T17:50:15.471Z,16.00
2019-05-11T17:52:41.999Z,15.90
2019-05-11T17:55:08.608Z,16.00
2019-05-11T17:57:35.248Z,15.80
2019-05-11T18:00:04.690Z,15.70
2019-05-11T18:02:31.160Z,15.70
2019-05-11T18:04:58.439Z,15.60
2019-05-11T18:07:30.274Z,15.60
2019-05-11T18:09:54.827Z,15.60
2019-05-11T18:12:21.803Z,15.60
2019-05-11T18:14:48.363Z,15.50
2019-05-11T18:17:14.918Z,15.50
2019-05-11T18:19:41.653Z,15.40
2019-05-11T18:22:08.384Z,15.40
2019-05-11T18:24:35.080Z,15.40
2019-05-11T18:27:01.731Z,15.50
2019-05-11T18:29:28.790Z,15.50
2019-05-11T18:31:57.812Z,15.40
2019-05-11T18:34:24.204Z,15.40
2019-05-11T18:36:50.736Z,15.50
2019-05-11T18:39:18.609Z,15.60
2019-05-11T18:41:45.544Z,15.60
2019-05-11T18:44:13.984Z,15.60
2019-05-11T18:46:40.554Z,15.50
2019-05-11T18:49:07.077Z,15.60
2019-05-11T18:51:33.591Z,15.60
2019-05-11T18:54:00.264Z,15.50
2019-05-11T18:56:28.581Z,15.50
2019-05-11T18:58:58.239Z,15.50
2019-05-11T19:01:24.176Z,15.50
2019-05-11T19:03:50.695Z,15.40
2019-05-11T19:06:18.375Z,15.40
2019-05-11T19:08:47.680Z,15.40
2019-05-11T19:11:13.448Z,15.40
2019-05-11T19:13:40.010Z,15.40
2019-05-11T19:16:08.587Z,15.30
2019-05-11T19:18:35.414Z,15.30
2019-05-11T19:21:02.187Z,15.30
2019-05-11T19:23:28.930Z,15.30
2019-05-11T19:25:57.770Z,15.30
2019-05-11T19:28:23.887Z,15.30
2019-05-11T19:30:50.422Z,15.30
2019-05-11T19:33:18.975Z,15.40
2019-05-11T19:35:45.291Z,15.40
2019-05-11T19:38:11.948Z,15.40
2019-05-11T19:40:38.811Z,15.30
2019-05-11T19:43:07.679Z,15.30
2019-05-11T19:45:33.744Z,15.40
2019-05-11T19:48:00.918Z,15.20
2019-05-11T19:50:27.901Z,15.20
2019-05-11T19:52:54.438Z,15.10
2019-05-11T19:55:21.520Z,15.10
2019-05-11T19:57:48.417Z,15.10
2019-05-11T20:00:18.147Z,15.00
2019-05-11T20:02:43.859Z,14.80
2019-05-11T20:05:10.470Z,14.70
2019-05-11T20:07:37.784Z,14.60
2019-05-11T20:10:07.537Z,14.60
2019-05-11T20:12:34.364Z,14.50
2019-05-11T20:15:00.959Z,14.40
2019-05-11T20:17:28.772Z,14.40
2019-05-11T20:19:58.112Z,14.40
2019-05-11T20:22:24.041Z,14.50
2019-05-11T20:24:50.566Z,14.50
2019-05-11T20:27:18.613Z,14.40
2019-05-11T20:29:47.762Z,14.30
2019-05-11T20:32:14.856Z,14.20
2019-05-11T20:34:42.022Z,14.40
2019-05-11T20:37:08.543Z,14.60
2019-05-11T20:39:37.739Z,14.60
2019-05-11T20:42:03.737Z,14.50
2019-05-11T20:44:30.303Z,14.10
2019-05-11T20:46:58.024Z,14.20
2019-05-11T20:49:24.943Z,14.30
2019-05-11T20:51:51.987Z,14.20
2019-05-11T20:54:18.614Z,14.00
2019-05-11T20:56:47.839Z,14.00
2019-05-11T20:59:14.532Z,14.10
2019-05-11T21:01:41.171Z,14.10
2019-05-11T21:04:08.472Z,14.00
2019-05-11T21:06:35.149Z,13.90
2019-05-11T21:09:01.744Z,14.00
2019-05-11T21:11:28.269Z,13.90
2019-05-11T21:13:55.244Z,13.70
2019-05-11T21:16:21.962Z,13.60
2019-05-11T21:18:48.572Z,13.70
2019-05-11T21:21:15.235Z,13.50
2019-05-11T21:23:41.791Z,13.50
2019-05-11T21:26:09.980Z,13.40
2019-05-11T21:28:38.041Z,13.40
2019-05-11T21:31:07.791Z,13.50
2019-05-11T21:33:33.688Z,13.50
2019-05-11T21:36:00.768Z,13.60
2019-05-11T21:38:31.608Z,13.70
2019-05-11T21:40:57.938Z,13.50
2019-05-11T21:43:24.592Z,13.40
2019-05-11T21:45:50.996Z,13.30
2019-05-11T21:48:17.506Z,13.10
2019-05-11T21:50:44.121Z,13.10
2019-05-11T21:53:10.767Z,13.00
2019-05-11T21:55:37.832Z,12.80
2019-05-11T21:58:04.739Z,12.70
2019-05-11T22:00:32.593Z,12.80
2019-05-11T22:02:59.220Z,13.00
2019-05-11T22:05:25.919Z,13.10
2019-05-11T22:07:52.539Z,12.90
2019-05-11T22:10:19.273Z,12.60
2019-05-11T22:12:45.723Z,12.50
2019-05-11T22:15:13.117Z,12.50
2019-05-11T22:17:40.056Z,12.70
2019-05-11T22:20:09.091Z,12.80
2019-05-11T22:22:35.930Z,12.40
2019-05-11T22:25:04.780Z,12.20
2019-05-11T22:27:31.308Z,12.20
2019-05-11T22:29:58.914Z,12.20
2019-05-11T22:32:28.073Z,12.10
2019-05-11T22:34:54.929Z,12.00
2019-05-11T22:37:21.871Z,11.70
2019-05-11T22:39:49.438Z,11.60
2019-05-11T22:42:18.324Z,11.50
2019-05-11T22:44:45.053Z,11.40
2019-05-11T22:47:11.807Z,11.20
2019-05-11T22:49:38.410Z,11.20
2019-05-11T22:52:05.083Z,11.20
2019-05-11T22:54:31.661Z,11.20
2019-05-11T22:56:58.664Z,11.20
2019-05-11T22:59:28.129Z,11.10
2019-05-11T23:01:55.168Z,11.00
2019-05-11T23:04:21.914Z,11.00
2019-05-11T23:06:48.589Z,11.00
2019-05-11T23:09:15.431Z,10.90
2019-05-11T23:11:42.094Z,10.90
2019-05-11T23:14:09.974Z,10.70
2019-05-11T23:16:37.537Z,10.60
2019-05-11T23:19:09.478Z,10.60
2019-05-11T23:21:35.266Z,10.50
2019-05-11T23:24:02.259Z,10.40
2019-05-11T23:26:29.665Z,10.30
2019-05-11T23:28:57.962Z,10.30
2019-05-11T23:31:27.459Z,10.30
2019-05-11T23:33:54.139Z,10.40
2019-05-11T23:36:20.733Z,10.30
2019-05-11T23:38:47.810Z,10.20
2019-05-11T23:41:24.316Z,10.10
2019-05-11T23:43:43.386Z,10.00
2019-05-11T23:46:10.486Z,10.10
2019-05-11T23:48:38.615Z,10.10
2019-05-11T23:51:05.540Z,10.20
2019-05-11T23:53:32.163Z,10.30
2019-05-11T23:56:02.806Z,10.30
